createdAt,value
2022-07-26T00:01:37.051Z,23.09
2022-07-26T00:06:39.329Z,23.06
2022-07-26T00:11:41.124Z,23.08
2022-07-26T00:16:43.402Z,23.08
2022-07-26T00:21:45.357Z,23.07
2022-07-26T00:26:47.206Z,23.02
2022-07-26T00:31:49.162Z,23.01
2022-07-26T00:36:51.014Z,22.94
2022-07-26T00:41:52.862Z,22.99
2022-07-26T00:46:54.927Z,23.00
2022-07-26T00:51:56.639Z,22.94
2022-07-26T00:56:58.760Z,22.86
2022-07-26T01:02:01.500Z,22.77
2022-07-26T01:07:14.751Z,22.84
2022-07-26T01:12:18.212Z,22.89
2022-07-26T01:17:19.983Z,22.76
2022-07-26T01:22:21.871Z,22.54
2022-07-26T01:27:24.143Z,22.48
2022-07-26T01:32:25.925Z,22.54
2022-07-26T01:37:27.576Z,22.53
2022-07-26T01:42:29.310Z,22.60
2022-07-26T01:47:31.175Z,22.59
2022-07-26T01:52:33.255Z,22.56
2022-07-26T01:57:35.267Z,22.60
2022-07-26T02:02:37.228Z,22.50
2022-07-26T02:07:43.842Z,22.56
2022-07-26T02:12:46.394Z,22.57
2022-07-26T02:17:49.640Z,22.58
2022-07-26T02:22:51.351Z,22.56
2022-07-26T02:27:53.311Z,22.31
2022-07-26T02:32:55.014Z,22.38
2022-07-26T02:38:01.499Z,22.46
2022-07-26T02:43:05.068Z,22.48
2022-07-26T02:48:07.461Z,22.54
2022-07-26T02:53:09.178Z,22.52
2022-07-26T02:58:10.861Z,22.46
2022-07-26T03:03:14.218Z,22.36
2022-07-26T03:08:16.381Z,22.39
2022-07-26T03:13:18.091Z,22.41
2022-07-26T03:18:19.829Z,22.43
2022-07-26T03:23:21.539Z,22.47
2022-07-26T03:28:23.253Z,22.46
2022-07-26T03:33:25.321Z,22.42
2022-07-26T03:38:26.995Z,22.21
2022-07-26T03:43:29.100Z,22.27
2022-07-26T03:48:32.584Z,22.27
2022-07-26T03:53:34.598Z,22.23
2022-07-26T03:58:36.802Z,22.24
2022-07-26T04:03:40.024Z,22.24
2022-07-26T04:08:46.259Z,22.23
2022-07-26T04:13:47.897Z,22.22
2022-07-26T04:18:49.807Z,22.14
2022-07-26T04:23:51.943Z,22.16
2022-07-26T04:28:53.786Z,22.16
2022-07-26T04:33:55.449Z,22.09
2022-07-26T04:38:57.136Z,22.06
2022-07-26T04:43:58.999Z,22.05
2022-07-26T04:49:00.874Z,22.07
2022-07-26T04:54:02.692Z,22.14
2022-07-26T04:59:04.409Z,22.16
2022-07-26T05:04:06.482Z,22.16
2022-07-26T05:09:08.919Z,22.20
2022-07-26T05:14:10.962Z,22.28
2022-07-26T05:19:13.848Z,22.20
2022-07-26T05:24:15.434Z,22.08
2022-07-26T05:29:17.158Z,22.02
2022-07-26T05:34:18.960Z,21.98
2022-07-26T05:39:20.877Z,21.94
2022-07-26T05:44:24.536Z,21.88
2022-07-26T05:49:28.286Z,21.89
2022-07-26T05:54:42.323Z,21.93
2022-07-26T05:59:44.063Z,21.94
2022-07-26T06:04:47.611Z,21.95
2022-07-26T06:09:49.656Z,21.92
2022-07-26T06:14:51.381Z,21.94
2022-07-26T06:19:53.103Z,21.91
2022-07-26T06:24:54.868Z,21.87
2022-07-26T06:29:56.547Z,21.88
2022-07-26T06:34:58.295Z,21.87
2022-07-26T06:40:00.028Z,22.01
2022-07-26T06:45:02.729Z,22.08
2022-07-26T06:50:05.121Z,22.12
2022-07-26T06:55:08.902Z,22.18
2022-07-26T07:00:14.842Z,22.22
2022-07-26T07:05:17.050Z,22.25
2022-07-26T07:10:19.358Z,22.35
2022-07-26T07:15:25.464Z,22.43
2022-07-26T07:20:28.351Z,22.43
2022-07-26T07:25:30.728Z,22.43
2022-07-26T07:30:32.934Z,22.47
2022-07-26T07:35:35.339Z,22.55
2022-07-26T07:40:37.814Z,22.55
2022-07-26T07:45:39.735Z,22.49
2022-07-26T07:50:41.467Z,22.53
2022-07-26T07:55:51.471Z,22.62
2022-07-26T08:00:57.127Z,22.62
2022-07-26T08:05:59.171Z,22.57
2022-07-26T08:11:00.968Z,22.59
2022-07-26T08:16:02.984Z,22.70
2022-07-26T08:21:08.226Z,22.92
2022-07-26T08:26:10.603Z,23.16
2022-07-26T08:31:12.431Z,23.23
2022-07-26T08:36:17.611Z,23.37
2022-07-26T08:41:19.422Z,23.32
2022-07-26T08:46:26.843Z,23.27
2022-07-26T08:51:31.319Z,23.37
2022-07-26T08:56:34.577Z,23.66
2022-07-26T09:01:50.616Z,23.87
2022-07-26T09:07:11.438Z,24.12
2022-07-26T09:12:18.665Z,24.24
2022-07-26T09:17:25.255Z,24.37
2022-07-26T09:22:27.071Z,24.61
2022-07-26T09:27:39.059Z,24.73
2022-07-26T09:32:40.826Z,24.72
2022-07-26T09:37:46.906Z,24.69
2022-07-26T09:42:57.730Z,24.71
2022-07-26T09:48:00.518Z,24.80
2022-07-26T09:53:13.096Z,25.01
2022-07-26T09:58:16.254Z,24.96
2022-07-26T10:03:17.981Z,25.34
2022-07-26T10:08:20.125Z,25.40
2022-07-26T10:13:23.138Z,25.57
2022-07-26T10:18:37.987Z,25.87
2022-07-26T10:23:50.482Z,25.82
2022-07-26T10:28:52.288Z,25.85
2022-07-26T10:33:55.456Z,25.92
2022-07-26T10:39:03.966Z,25.92
2022-07-26T10:44:20.425Z,26.03
2022-07-26T10:49:29.293Z,25.92
2022-07-26T10:54:31.966Z,25.83
2022-07-26T10:59:54.690Z,25.73
2022-07-26T11:05:01.008Z,25.88
2022-07-26T11:10:02.905Z,25.86
2022-07-26T11:15:16.984Z,26.00
2022-07-26T11:20:29.547Z,26.04
2022-07-26T11:25:31.949Z,26.16
2022-07-26T11:30:33.778Z,26.38
2022-07-26T11:35:35.570Z,26.22
2022-07-26T11:40:43.350Z,26.25
2022-07-26T11:45:52.346Z,26.53
2022-07-26T11:51:09.342Z,26.37
2022-07-26T11:56:22.935Z,26.35
2022-07-26T12:01:27.640Z,26.57
2022-07-26T12:06:30.281Z,26.23
2022-07-26T12:11:41.627Z,26.31
2022-07-26T12:16:45.692Z,26.76
2022-07-26T12:21:52.621Z,27.17
2022-07-26T12:27:07.265Z,27.31
2022-07-26T12:32:12.749Z,27.53
2022-07-26T12:37:17.448Z,27.69
2022-07-26T12:42:34.330Z,27.97
2022-07-26T12:47:38.770Z,27.64
2022-07-26T12:52:41.671Z,27.50
2022-07-26T12:57:47.229Z,27.80
2022-07-26T13:02:49.360Z,27.97
2022-07-26T13:07:55.449Z,28.16
2022-07-26T13:12:57.244Z,27.84
2022-07-26T13:17:59.584Z,28.20
2022-07-26T13:23:02.500Z,28.44
2022-07-26T13:28:04.334Z,28.29
2022-07-26T13:33:06.670Z,28.19
2022-07-26T13:38:11.722Z,28.24
2022-07-26T13:43:14.215Z,28.02
2022-07-26T13:48:15.896Z,28.18
2022-07-26T13:53:17.715Z,28.31
2022-07-26T13:58:21.691Z,28.17
2022-07-26T14:03:23.586Z,27.99
2022-07-26T14:08:25.463Z,27.96
2022-07-26T14:13:27.289Z,27.68
2022-07-26T14:18:28.999Z,27.63
2022-07-26T14:23:30.799Z,27.36
2022-07-26T14:28:32.538Z,27.26
2022-07-26T14:33:34.400Z,27.31
2022-07-26T14:38:36.962Z,27.48
2022-07-26T14:43:38.721Z,27.46
2022-07-26T14:48:53.942Z,27.33
2022-07-26T14:53:56.531Z,27.21
2022-07-26T14:58:58.269Z,27.33
2022-07-26T15:03:59.984Z,27.24
2022-07-26T15:09:01.888Z,27.05
2022-07-26T15:14:06.503Z,26.88
2022-07-26T15:19:08.373Z,26.85
2022-07-26T15:24:11.070Z,26.91
2022-07-26T15:29:13.080Z,26.83
2022-07-26T15:34:15.707Z,26.87
2022-07-26T15:39:18.390Z,27.43
2022-07-26T15:44:25.497Z,27.99
2022-07-26T15:49:27.917Z,27.96
2022-07-26T15:54:30.024Z,28.03
2022-07-26T15:59:31.706Z,28.31
2022-07-26T16:04:33.858Z,28.50
2022-07-26T16:09:35.445Z,28.57
2022-07-26T16:14:37.458Z,28.42
2022-07-26T16:19:39.147Z,28.47
2022-07-26T16:24:40.911Z,28.06
2022-07-26T16:29:42.714Z,27.78
2022-07-26T16:34:44.499Z,28.24
2022-07-26T16:39:46.324Z,27.98
2022-07-26T16:44:48.286Z,27.91
2022-07-26T16:49:50.174Z,27.92
2022-07-26T16:54:51.856Z,27.99
2022-07-26T16:59:53.562Z,27.86
2022-07-26T17:04:57.165Z,27.87
2022-07-26T17:09:58.863Z,27.86
2022-07-26T17:15:01.002Z,27.15
2022-07-26T17:20:04.075Z,27.05
2022-07-26T17:25:07.063Z,27.12
2022-07-26T17:30:09.492Z,26.76
2022-07-26T17:35:11.341Z,26.95
2022-07-26T17:40:13.317Z,26.57
2022-07-26T17:45:15.522Z,26.22
2022-07-26T17:55:39.192Z,25.87
2022-07-26T18:00:41.715Z,25.91
2022-07-26T18:05:43.822Z,25.87
2022-07-26T18:10:50.887Z,25.61
2022-07-26T18:15:53.680Z,25.53
2022-07-26T18:20:55.497Z,25.44
2022-07-26T18:25:58.070Z,25.35
2022-07-26T18:30:59.813Z,25.41
2022-07-26T18:36:01.654Z,25.54
2022-07-26T18:41:03.746Z,25.65
2022-07-26T18:46:06.471Z,25.78
2022-07-26T18:51:08.426Z,25.74
2022-07-26T18:56:10.284Z,25.51
2022-07-26T19:01:12.340Z,25.14
2022-07-26T19:06:14.274Z,24.60
2022-07-26T19:11:16.006Z,23.87
2022-07-26T19:16:17.819Z,23.59
2022-07-26T19:21:21.027Z,23.46
2022-07-26T19:26:23.821Z,23.05
2022-07-26T19:31:25.961Z,22.86
2022-07-26T19:36:27.740Z,22.68
2022-07-26T19:41:29.963Z,22.68
2022-07-26T19:46:31.676Z,22.66
2022-07-26T19:51:33.510Z,22.52
2022-07-26T19:56:35.435Z,22.46
2022-07-26T20:01:37.135Z,22.38
2022-07-26T20:06:38.835Z,22.41
2022-07-26T20:11:41.245Z,22.46
2022-07-26T20:16:43.014Z,22.41
2022-07-26T20:21:44.938Z,22.46
2022-07-26T20:26:46.719Z,22.14
2022-07-26T20:31:48.562Z,21.91
2022-07-26T20:36:50.297Z,21.71
2022-07-26T20:41:52.029Z,21.59
2022-07-26T20:46:54.452Z,21.41
2022-07-26T20:51:56.682Z,21.28
2022-07-26T20:56:58.554Z,21.02
2022-07-26T21:02:02.154Z,20.98
2022-07-26T21:07:03.975Z,20.98
2022-07-26T21:12:05.957Z,20.89
2022-07-26T21:17:11.647Z,20.75
2022-07-26T21:22:14.160Z,20.66
2022-07-26T21:27:15.866Z,20.52
2022-07-26T21:32:17.611Z,20.52
2022-07-26T21:37:19.306Z,20.41
2022-07-26T21:42:20.996Z,20.15
2022-07-26T21:47:28.986Z,20.34
2022-07-26T21:52:30.693Z,20.36
2022-07-26T21:57:32.469Z,20.18
2022-07-26T22:02:34.927Z,19.94
2022-07-26T22:07:36.713Z,19.71
2022-07-26T22:12:38.535Z,19.73
2022-07-26T22:17:40.413Z,19.71
2022-07-26T22:22:42.073Z,19.59
2022-07-26T22:27:43.777Z,19.66
2022-07-26T22:32:45.492Z,19.42
2022-07-26T22:37:47.174Z,19.22
2022-07-26T22:42:49.945Z,19.37
2022-07-26T22:47:55.705Z,19.57
2022-07-26T22:53:00.922Z,19.37
2022-07-26T22:58:02.743Z,19.18
2022-07-26T23:03:05.058Z,19.17
2022-07-26T23:08:44.219Z,19.00
2022-07-26T23:13:35.462Z,19.14
2022-07-26T23:18:37.137Z,19.18
2022-07-26T23:23:38.902Z,19.06
2022-07-26T23:28:40.878Z,18.72
2022-07-26T23:33:51.821Z,18.29
2022-07-26T23:38:56.589Z,18.20
2022-07-26T23:43:58.327Z,17.77
2022-07-26T23:49:00.204Z,17.54
2022-07-26T23:54:03.017Z,17.86
2022-07-26T23:59:04.795Z,18.17
